createdAt,value
2022-08-25T00:01:46.145Z,1.35
2022-08-25T00:04:15.541Z,1.35
2022-08-25T00:06:44.029Z,1.23
2022-08-25T00:09:13.082Z,1.20
2022-08-25T00:11:40.460Z,1.20
2022-08-25T00:14:14.709Z,1.10
2022-08-25T00:16:41.764Z,1.20
2022-08-25T00:19:15.003Z,1.50
2022-08-25T00:21:42.813Z,1.50
2022-08-25T00:24:10.701Z,1.20
2022-08-25T00:26:46.758Z,1.30
2022-08-25T00:29:14.148Z,1.45
2022-08-25T00:31:41.491Z,1.60
2022-08-25T00:34:11.181Z,1.40
2022-08-25T00:36:38.524Z,1.48
2022-08-25T00:39:07.937Z,1.23
2022-08-25T00:41:35.422Z,1.58
2022-08-25T00:44:06.486Z,1.30
2022-08-25T00:46:48.592Z,1.13
2022-08-25T00:49:30.202Z,1.40
2022-08-25T00:52:02.316Z,1.30
2022-08-25T00:54:33.854Z,1.23
2022-08-25T00:57:03.057Z,1.30
2022-08-25T00:59:30.339Z,1.15
2022-08-25T01:01:58.916Z,1.48
2022-08-25T01:04:26.190Z,1.60
2022-08-25T01:06:53.151Z,1.40
2022-08-25T01:09:20.141Z,1.23
2022-08-25T01:11:47.221Z,1.50
2022-08-25T01:14:18.904Z,1.50
2022-08-25T01:16:46.406Z,1.30
2022-08-25T01:19:17.640Z,1.60
2022-08-25T01:21:49.886Z,1.27
2022-08-25T01:24:24.769Z,1.35
2022-08-25T01:26:51.562Z,1.48
2022-08-25T01:29:21.158Z,1.40
2022-08-25T01:31:49.987Z,1.20
2022-08-25T01:34:18.319Z,1.17
2022-08-25T01:36:45.290Z,1.42
2022-08-25T01:39:12.352Z,1.40
2022-08-25T01:41:58.858Z,1.30
2022-08-25T01:44:26.200Z,1.42
2022-08-25T01:46:54.604Z,1.50
2022-08-25T01:49:21.986Z,1.35
2022-08-25T01:51:55.857Z,1.20
2022-08-25T01:54:22.670Z,1.23
2022-08-25T01:56:49.925Z,1.20
2022-08-25T01:59:24.075Z,1.30
2022-08-25T02:01:51.890Z,1.52
2022-08-25T02:04:29.502Z,1.40
2022-08-25T02:06:56.267Z,1.27
2022-08-25T02:09:23.205Z,1.52
2022-08-25T02:11:50.126Z,1.40
2022-08-25T02:14:18.485Z,1.20
2022-08-25T02:16:49.217Z,1.30
2022-08-25T02:19:17.040Z,1.05
2022-08-25T02:21:44.113Z,1.30
2022-08-25T02:24:12.087Z,1.20
2022-08-25T02:26:38.920Z,1.40
2022-08-25T02:29:07.514Z,1.60
2022-08-25T02:31:35.719Z,1.17
2022-08-25T02:34:02.850Z,1.15
2022-08-25T02:36:30.700Z,1.20
2022-08-25T02:38:57.387Z,1.23
2022-08-25T02:41:31.617Z,1.52
2022-08-25T02:44:01.207Z,1.38
2022-08-25T02:46:28.344Z,1.20
2022-08-25T02:48:55.295Z,1.10
2022-08-25T02:51:24.263Z,1.40
2022-08-25T02:53:51.427Z,1.10
2022-08-25T02:56:18.886Z,1.40
2022-08-25T02:58:46.735Z,1.20
2022-08-25T03:01:14.803Z,1.23
2022-08-25T03:03:44.326Z,1.13
2022-08-25T03:06:12.849Z,1.30
2022-08-25T03:08:39.641Z,1.17
2022-08-25T03:11:06.703Z,1.30
2022-08-25T03:13:33.455Z,1.30
2022-08-25T03:16:00.791Z,1.30
2022-08-25T03:18:28.116Z,1.30
2022-08-25T03:20:55.011Z,1.40
2022-08-25T03:23:21.690Z,1.50
2022-08-25T03:26:06.814Z,1.33
2022-08-25T03:28:33.958Z,1.30
2022-08-25T03:31:01.461Z,1.60
2022-08-25T03:33:29.718Z,1.40
2022-08-25T03:35:56.615Z,1.17
2022-08-25T03:38:25.507Z,1.10
2022-08-25T03:40:53.078Z,1.40
2022-08-25T03:43:20.329Z,1.20
2022-08-25T03:45:47.865Z,1.55
2022-08-25T03:48:16.162Z,1.25
2022-08-25T03:50:50.625Z,1.50
2022-08-25T03:53:19.964Z,1.45
2022-08-25T03:55:47.210Z,1.23
2022-08-25T03:58:13.875Z,1.20
2022-08-25T04:00:40.924Z,1.63
2022-08-25T04:03:07.642Z,1.30
2022-08-25T04:05:34.355Z,1.20
2022-08-25T04:08:02.020Z,1.20
2022-08-25T04:10:29.697Z,1.00
2022-08-25T04:12:57.343Z,1.10
2022-08-25T04:15:24.949Z,1.23
2022-08-25T04:17:57.088Z,1.30
2022-08-25T04:20:23.695Z,1.40
2022-08-25T04:22:50.298Z,1.30
2022-08-25T04:25:17.019Z,1.40
2022-08-25T04:27:43.626Z,1.40
2022-08-25T04:30:11.033Z,1.45
2022-08-25T04:32:37.796Z,0.80
2022-08-25T04:35:05.371Z,1.10
2022-08-25T04:37:33.392Z,1.17
2022-08-25T04:40:00.290Z,1.37
2022-08-25T04:42:27.341Z,1.50
2022-08-25T04:44:54.612Z,1.17
2022-08-25T04:47:22.288Z,1.05
2022-08-25T04:49:49.014Z,1.42
2022-08-25T04:52:15.876Z,1.17
2022-08-25T04:54:43.822Z,1.20
2022-08-25T04:57:10.795Z,0.95
2022-08-25T04:59:37.657Z,1.20
2022-08-25T05:02:05.419Z,1.20
2022-08-25T05:04:35.512Z,1.20
2022-08-25T05:07:02.775Z,1.08
2022-08-25T05:09:32.179Z,0.93
2022-08-25T05:12:00.842Z,1.00
2022-08-25T05:14:27.569Z,1.10
2022-08-25T05:16:55.487Z,0.97
2022-08-25T05:19:24.180Z,1.10
2022-08-25T05:21:51.209Z,1.40
2022-08-25T05:24:18.867Z,1.38
2022-08-25T05:26:45.960Z,1.40
2022-08-25T05:29:13.021Z,1.20
2022-08-25T05:31:43.924Z,1.25
2022-08-25T05:34:12.697Z,1.23
2022-08-25T05:36:43.338Z,1.40
2022-08-25T05:39:10.940Z,1.17
2022-08-25T05:41:38.071Z,1.20
2022-08-25T05:44:05.466Z,1.35
2022-08-25T05:46:32.126Z,1.15
2022-08-25T05:48:59.153Z,1.30
2022-08-25T05:51:26.693Z,1.50
2022-08-25T05:53:54.082Z,1.40
2022-08-25T05:56:20.854Z,1.17
2022-08-25T05:58:48.299Z,1.10
2022-08-25T06:01:45.786Z,1.33
2022-08-25T06:04:14.100Z,1.20
2022-08-25T06:06:41.043Z,1.30
2022-08-25T06:09:09.453Z,1.27
2022-08-25T06:11:38.174Z,1.30
2022-08-25T06:14:04.977Z,1.25
2022-08-25T06:16:31.871Z,1.30
2022-08-25T06:18:58.604Z,1.10
2022-08-25T06:21:25.321Z,1.10
2022-08-25T06:23:52.764Z,1.33
2022-08-25T06:26:20.858Z,1.10
2022-08-25T06:28:52.104Z,1.30
2022-08-25T06:31:20.449Z,1.53
2022-08-25T06:33:47.243Z,1.52
2022-08-25T06:36:14.373Z,1.17
2022-08-25T06:38:41.374Z,1.55
2022-08-25T06:41:10.804Z,1.48
2022-08-25T06:43:45.046Z,1.23
2022-08-25T06:46:18.314Z,1.52
2022-08-25T06:48:45.190Z,1.08
2022-08-25T06:51:19.192Z,1.60
2022-08-25T06:53:49.041Z,1.30
2022-08-25T06:56:21.500Z,1.50
2022-08-25T06:58:50.711Z,1.30
2022-08-25T07:01:22.307Z,1.45
2022-08-25T07:03:55.042Z,1.50
2022-08-25T07:06:22.157Z,1.58
2022-08-25T07:08:48.901Z,1.30
2022-08-25T07:11:17.418Z,1.30
2022-08-25T07:13:45.623Z,1.27
2022-08-25T07:16:12.984Z,1.60
2022-08-25T07:18:39.740Z,1.58
2022-08-25T07:21:08.759Z,1.40
2022-08-25T07:23:36.415Z,1.20
2022-08-25T07:29:07.916Z,1.60
2022-08-25T07:31:35.123Z,1.60
2022-08-25T07:34:20.734Z,1.60
2022-08-25T07:36:48.057Z,1.55
2022-08-25T07:39:14.832Z,1.50
2022-08-25T07:41:42.429Z,1.30
2022-08-25T07:44:11.258Z,1.60
2022-08-25T07:46:38.852Z,1.70
2022-08-25T07:49:16.321Z,1.50
2022-08-25T07:52:04.758Z,1.50
2022-08-25T07:54:33.781Z,1.55
2022-08-25T07:57:01.084Z,1.75
2022-08-25T07:59:28.017Z,2.00
2022-08-25T08:01:54.748Z,1.58
2022-08-25T08:04:22.316Z,1.70
2022-08-25T08:06:49.183Z,1.30
2022-08-25T08:09:16.254Z,1.50
2022-08-25T08:11:51.470Z,1.73
2022-08-25T08:14:21.188Z,1.45
2022-08-25T08:16:48.121Z,1.42
2022-08-25T08:19:15.561Z,1.60
2022-08-25T08:21:42.893Z,1.75
2022-08-25T08:24:24.886Z,1.57
2022-08-25T08:26:59.118Z,1.60
2022-08-25T08:29:26.910Z,1.70
2022-08-25T08:31:53.593Z,1.77
2022-08-25T08:34:20.320Z,1.80
2022-08-25T08:36:52.395Z,1.70
2022-08-25T08:39:19.104Z,1.70
2022-08-25T08:42:19.778Z,1.90
2022-08-25T08:45:06.103Z,1.70
2022-08-25T08:48:07.262Z,1.88
2022-08-25T08:50:57.398Z,2.10
2022-08-25T08:53:33.985Z,1.80
2022-08-25T08:56:14.345Z,1.40
2022-08-25T08:58:49.879Z,1.80
2022-08-25T09:01:26.631Z,1.65
2022-08-25T09:04:00.127Z,1.53
2022-08-25T09:06:34.114Z,1.60
2022-08-25T09:09:06.741Z,1.90
2022-08-25T09:11:58.393Z,1.80
2022-08-25T09:14:35.468Z,1.90
2022-08-25T09:17:29.781Z,1.87
2022-08-25T09:20:18.868Z,1.90
2022-08-25T09:23:01.184Z,1.52
2022-08-25T09:26:05.299Z,1.80
2022-08-25T09:28:41.944Z,1.73
2022-08-25T09:31:29.584Z,1.37
2022-08-25T09:33:59.920Z,1.80
2022-08-25T09:36:27.385Z,1.92
2022-08-25T09:38:55.347Z,1.80
2022-08-25T09:41:43.308Z,1.70
2022-08-25T09:44:38.859Z,1.83
2022-08-25T09:47:05.537Z,1.42
2022-08-25T09:49:40.867Z,1.60
2022-08-25T09:52:37.415Z,1.55
2022-08-25T09:55:16.119Z,1.80
2022-08-25T09:57:42.731Z,1.77
2022-08-25T10:00:22.917Z,1.80
2022-08-25T10:03:05.707Z,1.90
2022-08-25T10:05:35.521Z,1.88
2022-08-25T10:08:14.507Z,1.70
2022-08-25T10:10:55.096Z,1.53
2022-08-25T10:13:34.013Z,1.88
2022-08-25T10:16:19.979Z,1.60
2022-08-25T10:19:22.635Z,1.92
2022-08-25T10:22:12.035Z,1.90
2022-08-25T10:24:40.982Z,1.73
2022-08-25T10:27:29.095Z,1.98
2022-08-25T10:30:16.917Z,2.05
2022-08-25T10:33:02.169Z,2.20
2022-08-25T10:35:50.641Z,2.15
2022-08-25T10:38:43.124Z,2.23
2022-08-25T10:41:44.100Z,1.95
2022-08-25T10:45:08.130Z,2.15
2022-08-25T10:47:57.293Z,2.10
2022-08-25T10:51:02.182Z,2.10
2022-08-25T10:53:50.217Z,2.40
2022-08-25T10:56:21.497Z,2.10
2022-08-25T10:59:07.382Z,2.45
2022-08-25T11:01:53.517Z,2.47
2022-08-25T11:04:29.788Z,2.40
2022-08-25T11:07:03.264Z,2.40
2022-08-25T11:09:39.307Z,2.10
2022-08-25T11:12:15.489Z,2.33
2022-08-25T11:14:49.776Z,2.42
2022-08-25T11:17:24.081Z,1.90
2022-08-25T11:20:00.863Z,2.67
2022-08-25T11:22:34.884Z,2.40
2022-08-25T11:25:29.608Z,2.65
2022-08-25T11:28:31.346Z,2.42
2022-08-25T11:31:00.753Z,2.78
2022-08-25T11:33:30.554Z,2.77
2022-08-25T11:36:05.065Z,2.33
2022-08-25T11:39:00.216Z,2.33
2022-08-25T11:42:05.314Z,2.47
2022-08-25T11:44:55.649Z,2.85
2022-08-25T11:47:41.159Z,2.63
2022-08-25T11:50:23.277Z,2.17
2022-08-25T11:53:01.856Z,2.83
2022-08-25T11:55:37.449Z,2.92
2022-08-25T11:58:39.029Z,2.85
2022-08-25T12:01:31.542Z,2.90
2022-08-25T12:04:16.005Z,2.78
2022-08-25T12:07:11.108Z,3.20
2022-08-25T12:09:53.865Z,2.60
2022-08-25T12:12:55.231Z,2.92
2022-08-25T12:15:34.893Z,2.70
2022-08-25T12:18:11.574Z,2.67
2022-08-25T12:20:53.549Z,2.88
2022-08-25T12:23:37.944Z,2.67
2022-08-25T12:26:21.766Z,2.30
2022-08-25T12:29:15.156Z,2.30
2022-08-25T12:31:47.755Z,2.33
2022-08-25T12:34:35.163Z,2.80
2022-08-25T12:37:13.188Z,2.45
2022-08-25T12:39:48.902Z,2.58
2022-08-25T12:42:26.127Z,2.37
2022-08-25T12:45:15.038Z,2.10
2022-08-25T12:47:47.376Z,2.60
2022-08-25T12:50:48.219Z,2.33
2022-08-25T12:53:22.940Z,2.47
2022-08-25T12:56:00.222Z,2.13
2022-08-25T12:58:58.846Z,2.13
2022-08-25T13:01:44.940Z,2.45
2022-08-25T13:04:44.017Z,2.28
2022-08-25T13:07:40.907Z,2.38
2022-08-25T13:10:29.971Z,2.07
2022-08-25T13:13:21.055Z,2.20
2022-08-25T13:16:00.088Z,2.17
2022-08-25T13:18:32.558Z,2.38
2022-08-25T13:21:09.454Z,2.28
2022-08-25T13:23:40.340Z,1.93
2022-08-25T13:26:07.078Z,2.40
2022-08-25T13:28:37.060Z,2.75
2022-08-25T13:31:09.201Z,2.03
2022-08-25T13:33:37.104Z,2.65
2022-08-25T13:36:23.237Z,2.03
2022-08-25T13:38:50.953Z,1.77
2022-08-25T13:41:29.631Z,2.20
2022-08-25T13:44:02.593Z,2.05
2022-08-25T13:46:30.121Z,2.10
2022-08-25T13:49:05.668Z,1.87
2022-08-25T13:51:32.781Z,2.30
2022-08-25T13:54:03.276Z,2.33
2022-08-25T13:56:40.615Z,1.90
2022-08-25T13:59:22.966Z,2.10
2022-08-25T14:01:51.242Z,2.10
2022-08-25T14:04:26.757Z,2.22
2022-08-25T14:07:23.179Z,1.90
2022-08-25T14:09:52.197Z,2.15
2022-08-25T14:12:46.306Z,2.00
2022-08-25T14:15:20.067Z,1.60
2022-08-25T14:18:27.164Z,1.90
2022-08-25T14:20:56.454Z,2.30
2022-08-25T14:23:28.738Z,1.77
2022-08-25T14:25:57.747Z,1.85
2022-08-25T14:28:29.334Z,1.43
2022-08-25T14:31:14.652Z,1.98
2022-08-25T14:33:53.202Z,2.20
2022-08-25T14:36:20.937Z,2.00
2022-08-25T14:38:55.053Z,2.00
2022-08-25T14:41:24.010Z,1.70
2022-08-25T14:43:50.700Z,1.80
2022-08-25T14:46:21.415Z,1.70
2022-08-25T14:48:54.584Z,1.63
2022-08-25T14:51:23.825Z,2.10
2022-08-25T14:53:54.008Z,1.60
2022-08-25T14:56:20.773Z,1.65
2022-08-25T14:58:51.175Z,1.75
2022-08-25T15:01:28.992Z,1.77
2022-08-25T15:04:21.228Z,1.52
2022-08-25T15:06:54.152Z,1.60
2022-08-25T15:09:21.611Z,1.50
2022-08-25T15:11:51.919Z,1.58
2022-08-25T15:14:28.569Z,1.83
2022-08-25T15:17:00.150Z,2.03
2022-08-25T15:19:28.420Z,1.50
2022-08-25T15:21:58.103Z,1.35
2022-08-25T15:24:27.855Z,1.90
2022-08-25T15:27:00.452Z,1.83
2022-08-25T15:29:30.195Z,1.60
2022-08-25T15:31:58.998Z,1.70
2022-08-25T15:34:26.023Z,1.70
2022-08-25T15:36:52.725Z,1.98
2022-08-25T15:39:19.687Z,1.50
2022-08-25T15:41:54.097Z,1.77
2022-08-25T15:44:22.210Z,1.80
2022-08-25T15:46:50.862Z,1.77
2022-08-25T15:49:23.094Z,1.90
2022-08-25T15:51:54.640Z,1.58
2022-08-25T15:54:26.969Z,2.03
2022-08-25T15:56:55.226Z,1.33
2022-08-25T15:59:22.210Z,1.30
2022-08-25T16:01:53.314Z,1.80
2022-08-25T16:04:22.287Z,1.50
2022-08-25T16:06:50.389Z,1.77
2022-08-25T16:09:18.225Z,1.57
2022-08-25T16:11:57.656Z,1.73
2022-08-25T16:14:26.291Z,1.40
2022-08-25T16:16:58.372Z,2.08
2022-08-25T16:19:26.175Z,1.80
2022-08-25T16:21:52.802Z,1.40
2022-08-25T16:24:19.489Z,1.58
2022-08-25T16:26:48.410Z,1.98
2022-08-25T16:29:15.753Z,1.52
2022-08-25T16:31:43.808Z,1.63
2022-08-25T16:34:10.797Z,1.50
2022-08-25T16:36:39.535Z,1.58
2022-08-25T16:39:09.901Z,1.60
2022-08-25T16:41:37.371Z,1.15
2022-08-25T16:44:11.195Z,1.80
2022-08-25T16:46:38.891Z,1.47
2022-08-25T16:49:07.761Z,1.70
2022-08-25T16:51:34.400Z,1.45
2022-08-25T16:54:22.117Z,1.30
2022-08-25T16:56:54.739Z,1.20
2022-08-25T16:59:23.592Z,1.30
2022-08-25T17:01:52.511Z,1.50
2022-08-25T17:04:19.904Z,1.70
2022-08-25T17:06:51.803Z,1.48
2022-08-25T17:09:22.872Z,1.55
2022-08-25T17:11:54.101Z,1.30
2022-08-25T17:14:21.755Z,1.20
2022-08-25T17:16:50.661Z,1.65
2022-08-25T17:19:17.445Z,1.40
2022-08-25T17:21:46.123Z,1.75
2022-08-25T17:24:14.003Z,1.30
2022-08-25T17:26:46.050Z,1.33
2022-08-25T17:29:12.975Z,1.60
2022-08-25T17:31:40.495Z,1.40
2022-08-25T17:34:13.043Z,1.50
2022-08-25T17:36:44.012Z,1.70
2022-08-25T17:39:12.713Z,1.40
2022-08-25T17:41:43.025Z,1.40
2022-08-25T17:44:09.666Z,1.40
2022-08-25T17:46:36.970Z,1.40
2022-08-25T17:49:04.741Z,1.30
2022-08-25T17:51:32.315Z,1.40
2022-08-25T17:53:59.333Z,1.17
2022-08-25T17:56:27.645Z,1.50
2022-08-25T17:58:55.589Z,1.33
2022-08-25T18:01:29.157Z,1.27
2022-08-25T18:03:57.429Z,1.02
2022-08-25T18:06:24.739Z,1.20
2022-08-25T18:08:56.296Z,1.30
2022-08-25T18:11:25.415Z,1.27
2022-08-25T18:13:53.850Z,1.00
2022-08-25T18:16:21.842Z,1.50
2022-08-25T18:18:48.800Z,1.20
2022-08-25T18:21:18.180Z,1.23
2022-08-25T18:23:45.699Z,1.35
2022-08-25T18:26:14.246Z,1.20
2022-08-25T18:28:43.705Z,1.20
2022-08-25T18:31:12.059Z,1.10
2022-08-25T18:33:42.113Z,1.10
2022-08-25T18:36:09.867Z,1.30
2022-08-25T18:39:08.838Z,1.30
2022-08-25T18:41:39.056Z,1.30
2022-08-25T18:44:06.952Z,1.10
2022-08-25T18:46:33.630Z,1.35
2022-08-25T18:49:01.341Z,1.10
2022-08-25T18:51:28.019Z,1.40
2022-08-25T18:54:01.103Z,1.25
2022-08-25T18:56:28.878Z,1.08
2022-08-25T18:58:55.983Z,1.17
2022-08-25T19:01:23.034Z,1.48
2022-08-25T19:03:50.304Z,1.23
2022-08-25T19:06:17.511Z,1.10
2022-08-25T19:08:46.339Z,1.48
2022-08-25T19:11:13.068Z,1.38
2022-08-25T19:13:40.217Z,1.40
2022-08-25T19:16:20.343Z,1.20
2022-08-25T19:18:48.935Z,1.15
2022-08-25T19:21:22.752Z,1.10
2022-08-25T19:23:50.611Z,1.00
2022-08-25T19:26:18.053Z,1.27
2022-08-25T19:28:48.864Z,1.20
2022-08-25T19:31:18.826Z,1.20
2022-08-25T19:33:50.249Z,1.30
2022-08-25T19:36:21.275Z,1.33
2022-08-25T19:38:53.274Z,1.40
2022-08-25T19:41:22.273Z,1.27
2022-08-25T19:43:56.336Z,1.30
2022-08-25T19:46:32.858Z,1.42
2022-08-25T19:49:10.183Z,1.60
2022-08-25T19:51:39.962Z,1.30
2022-08-25T19:54:08.981Z,1.60
2022-08-25T19:56:36.452Z,1.40
2022-08-25T19:59:03.896Z,1.38
2022-08-25T20:01:30.710Z,1.10
2022-08-25T20:03:57.381Z,2.00
2022-08-25T20:06:27.739Z,1.30
2022-08-25T20:09:00.322Z,1.50
2022-08-25T20:11:28.993Z,1.20
2022-08-25T20:13:59.260Z,1.60
2022-08-25T20:16:29.843Z,1.52
2022-08-25T20:18:56.579Z,1.60
2022-08-25T20:21:24.207Z,1.30
2022-08-25T20:24:09.600Z,1.38
2022-08-25T20:26:36.653Z,1.17
2022-08-25T20:29:05.124Z,1.40
2022-08-25T20:31:33.708Z,2.33
2022-08-25T20:34:02.931Z,2.17
2022-08-25T20:36:30.421Z,1.70
2022-08-25T20:38:59.079Z,1.73
2022-08-25T20:41:25.950Z,1.80
2022-08-25T20:43:52.630Z,1.53
2022-08-25T20:46:19.402Z,1.83
2022-08-25T20:48:46.119Z,1.90
2022-08-25T20:51:13.555Z,1.40
2022-08-25T20:53:42.548Z,1.80
2022-08-25T20:56:10.342Z,1.60
2022-08-25T20:58:38.407Z,1.75
2022-08-25T21:01:23.065Z,2.00
2022-08-25T21:03:50.759Z,1.40
2022-08-25T21:06:17.750Z,1.92
2022-08-25T21:08:47.012Z,1.77
2022-08-25T21:11:18.133Z,1.73
2022-08-25T21:13:45.933Z,1.73
2022-08-25T21:16:12.658Z,1.98
2022-08-25T21:18:42.661Z,1.50
2022-08-25T21:21:16.512Z,1.97
2022-08-25T21:23:50.018Z,1.80
2022-08-25T21:26:17.979Z,1.50
2022-08-25T21:28:47.756Z,1.33
2022-08-25T21:31:15.428Z,1.88
2022-08-25T21:33:43.411Z,1.60
2022-08-25T21:36:11.531Z,1.70
2022-08-25T21:38:39.982Z,1.80
2022-08-25T21:41:15.486Z,1.50
2022-08-25T21:43:42.786Z,1.75
2022-08-25T21:46:14.548Z,1.80
2022-08-25T21:48:42.043Z,1.60
2022-08-25T21:51:15.408Z,1.60
2022-08-25T21:53:42.440Z,1.80
2022-08-25T21:56:17.302Z,1.90
2022-08-25T21:58:49.016Z,1.80
2022-08-25T22:01:19.147Z,1.85
2022-08-25T22:03:47.398Z,1.55
2022-08-25T22:06:15.317Z,1.85
2022-08-25T22:08:43.325Z,1.67
2022-08-25T22:11:10.882Z,2.00
2022-08-25T22:13:41.184Z,1.55
2022-08-25T22:16:10.473Z,1.90
2022-08-25T22:18:37.484Z,1.80
2022-08-25T22:21:07.330Z,1.70
2022-08-25T22:23:44.523Z,1.67
2022-08-25T22:26:15.502Z,1.85
2022-08-25T22:28:46.592Z,1.77
2022-08-25T22:31:14.913Z,2.03
2022-08-25T22:33:48.734Z,1.98
2022-08-25T22:36:16.832Z,1.80
2022-08-25T22:38:45.951Z,1.92
2022-08-25T22:41:13.059Z,1.83
2022-08-25T22:43:51.175Z,1.88
2022-08-25T22:46:21.613Z,2.00
2022-08-25T22:48:50.350Z,1.80
2022-08-25T22:51:20.695Z,2.17
2022-08-25T22:53:48.649Z,2.20
2022-08-25T22:56:29.669Z,1.77
2022-08-25T22:59:03.208Z,1.77
2022-08-25T23:01:31.931Z,1.73
2022-08-25T23:04:01.355Z,1.70
2022-08-25T23:06:28.950Z,2.10
2022-08-25T23:08:56.326Z,1.92
2022-08-25T23:11:24.307Z,2.30
2022-08-25T23:13:53.627Z,1.77
2022-08-25T23:16:22.313Z,1.73
2022-08-25T23:18:49.085Z,2.05
2022-08-25T23:21:37.850Z,2.10
2022-08-25T23:24:08.986Z,2.08
2022-08-25T23:26:38.093Z,2.20
2022-08-25T23:29:17.851Z,1.73
2022-08-25T23:31:47.172Z,2.08
2022-08-25T23:34:16.037Z,1.60
2022-08-25T23:36:42.934Z,2.00
2022-08-25T23:39:11.013Z,2.10
2022-08-25T23:41:37.682Z,1.73
2022-08-25T23:44:11.480Z,1.83
2022-08-25T23:46:39.110Z,2.08
2022-08-25T23:49:08.239Z,2.17
2022-08-25T23:51:38.091Z,1.97
2022-08-25T23:54:10.752Z,2.30
2022-08-25T23:56:42.448Z,2.22
2022-08-25T23:59:13.075Z,2.30
